This is the latest recevied weather packets stored in our database for station/object N0KWA. If no packets are shown the sender has not sent any weather packets the latest 10 day(s).
| Time | Temp. | Humidity | Pressure | Rain* | Wind** | Luminosity | Snow |
|---|---|---|---|---|---|---|---|
| 1777768317 | 18.33° C | 63% | 1018.9 hPa | 0 mm | - | 0 W/m² | - |
| 1777768013 | 18.89° C | 57% | 1018.9 hPa | 0 mm | - | 0 W/m² | - |
| 1777767710 | 18.89° C | 58% | 1018.9 hPa | 0 mm | - | 0 W/m² | - |
| 1777767406 | 18.89° C | 59% | 1018.8 hPa | 0 mm | - | 0 W/m² | - |
| 1777767103 | 19.44° C | 58% | 1018.6 hPa | 0 mm | - | 0 W/m² | - |
| 1777766801 | 19.44° C | 56% | 1018.6 hPa | 0 mm | - | 0 W/m² | - |
| 1777766498 | 19.44° C | 58% | 1018.4 hPa | 0 mm | - | 0 W/m² | - |
| 1777766194 | 20° C | 54% | 1018.5 hPa | 0 mm | - | 0 W/m² | - |
| 1777765893 | 20° C | 54% | 1018.5 hPa | 0 mm | - | 1 W/m² | - |
| 1777765588 | 20° C | 54% | 1018.4 hPa | 0 mm | - | 1 W/m² | - |
| 1777765286 | 20.56° C | 51% | 1018.4 hPa | 0 mm | - | 2 W/m² | - |
| 1777764982 | 20.56° C | 51% | 1018.2 hPa | 0 mm | - | 2 W/m² | - |
| 1777764678 | 20.56° C | 48% | 1018.1 hPa | 0 mm | - | 3 W/m² | - |
| 1777764374 | 20.56° C | 49% | 1018 hPa | 0 mm | - | 2 W/m² | - |
| 1777764072 | 21.11° C | 47% | 1017.9 hPa | 0 mm | - | 3 W/m² | - |
| 1777763768 | 21.11° C | 50% | 1018 hPa | 0 mm | - | 4 W/m² | - |
| 1777763467 | 21.11° C | 50% | 1017.8 hPa | 0 mm | - | 13 W/m² | - |
| 1777763165 | 21.11° C | 51% | 1017.9 hPa | 0 mm | - | 10 W/m² | - |
| 1777762863 | 21.11° C | 47% | 1017.7 hPa | 0 mm | - | 21 W/m² | - |
| 1777762558 | 21.11° C | 48% | 1017.9 hPa | 0 mm | - | 6 W/m² | - |
| 1777762255 | 21.11° C | 47% | 1017.6 hPa | 0 mm | - | 8 W/m² | - |
| 1777761951 | 21.11° C | 47% | 1017.6 hPa | 0 mm | - | 5 W/m² | - |
| 1777761648 | 21.11° C | 46% | 1017.7 hPa | 0 mm | - | 5 W/m² | - |
| 1777761346 | 21.11° C | 47% | 1017.6 hPa | 0 mm | - | 7 W/m² | - |
| 1777761045 | 21.11° C | 44% | 1017.8 hPa | 0 mm | - | 6 W/m² | - |
* Rain latest hour (hover to see other rain measurements)
** Current wind speed in m/s (hover to see current wind gust speed)